Buxhansa — A8TQ5 — position and weather

sailwx.info

Track history (hours):
 
Tides and Currents Weather Stations Pressure Air Temp Water Temp Dewpoint Dewpoint Depression Visibility Wind Speed Wind Dir Waves Ship Positions

Buxhansa

Last reported at 2015-May-19 17:12 UTC. Time now 2015-May-27 07:50 UTC.
Position N 01°14' E 104°02'.

Length 208 m; draft 8.3 m.

Type: Ship. MMSI: 636091849.

Date/timePositionNaut miles runAvg speedWind from/ knotsBaromVisibWave heightAir tempDewpointWater temp
2015-May-19 17:12N 01°14' E 104°02'109 2.8
2015-May-18 02:23N 01°55' E 102°20'1112.8
2015-May-18 01:32N 01°51' E 102°30'1212.3
2015-May-18 00:32N 01°46' E 102°42'1211.9
2015-May-17 23:33N 01°41' E 102°52'5711.3
2015-May-17 18:31N 01°14' E 103°42'5 3.4
2015-May-17 17:08N 01°17' E 103°46'0 0.0
2015-May-17 16:26N 01°17' E 103°46'0 0.0
2015-May-17 13:13N 01°17' E 103°46'0 0.0
2015-May-17 12:27N 01°17' E 103°46'0 0.0
2015-May-17 11:12N 01°17' E 103°46'0 0.0
2015-May-17 07:19N 01°17' E 103°46'0 0.0
2015-May-16 19:14N 01°17' E 103°46'1 1.7
2015-May-16 18:28N 01°16' E 103°46'7 7.6
2015-May-16 17:31N 01°13' E 103°53'1 0.5
2015-May-16 15:28N 01°12' E 103°52'  
Track history (hours):
 
Tides and Currents Weather Stations Pressure Air Temp Water Temp Dewpoint Dewpoint Depression Visibility Wind Speed Wind Dir Waves Ship Positions

Buxhansa

Last reported at 2015-May-19 17:12 UTC. Time now 2015-May-27 07:50 UTC.
Position N 01°14' E 104°02'.

Length 208 m; draft 8.3 m.

Type: Ship. MMSI: 636091849.

Date/timePositionNaut miles runAvg speedWind from/ knotsBaromVisibWave heightAir tempDewpointWater temp
2015-May-19 17:12N 01°14' E 104°02'109 2.8
2015-May-18 02:23N 01°55' E 102°20'1112.8
2015-May-18 01:32N 01°51' E 102°30'1212.3
2015-May-18 00:32N 01°46' E 102°42'1211.9
2015-May-17 23:33N 01°41' E 102°52'5711.3
2015-May-17 18:31N 01°14' E 103°42'5 3.4
2015-May-17 17:08N 01°17' E 103°46'0 0.0
2015-May-17 16:26N 01°17' E 103°46'0 0.0
2015-May-17 13:13N 01°17' E 103°46'0 0.0
2015-May-17 12:27N 01°17' E 103°46'0 0.0
2015-May-17 11:12N 01°17' E 103°46'0 0.0
2015-May-17 07:19N 01°17' E 103°46'0 0.0
2015-May-16 19:14N 01°17' E 103°46'1 1.7
2015-May-16 18:28N 01°16' E 103°46'7 7.6
2015-May-16 17:31N 01°13' E 103°53'1 0.5
2015-May-16 15:28N 01°12' E 103°52'  

Dump ship's entire track history